sensor_id;sensor_type;location;lat;lon;timestamp;P1;durP1;ratioP1;P2;durP2;ratioP2
14984;SDS011;7588;62.368;25.902;2023-05-15T00:02:17;12.87;;;11.50;;
14984;SDS011;7588;62.368;25.902;2023-05-15T00:04:42;13.70;;;11.83;;
14984;SDS011;7588;62.368;25.902;2023-05-15T00:07:08;13.23;;;11.77;;
14984;SDS011;7588;62.368;25.902;2023-05-15T00:09:34;13.63;;;11.63;;
14984;SDS011;7588;62.368;25.902;2023-05-15T00:12:00;16.83;;;12.00;;
14984;SDS011;7588;62.368;25.902;2023-05-15T00:14:26;13.70;;;12.10;;
14984;SDS011;7588;62.368;25.902;2023-05-15T00:16:51;14.57;;;11.93;;
14984;SDS011;7588;62.368;25.902;2023-05-15T00:19:17;17.30;;;12.30;;
14984;SDS011;7588;62.368;25.902;2023-05-15T00:21:43;14.20;;;10.83;;
14984;SDS011;7588;62.368;25.902;2023-05-15T00:24:08;15.00;;;12.37;;
14984;SDS011;7588;62.368;25.902;2023-05-15T00:26:34;17.00;;;11.87;;
14984;SDS011;7588;62.368;25.902;2023-05-15T00:29:00;17.00;;;12.33;;
14984;SDS011;7588;62.368;25.902;2023-05-15T00:31:26;18.90;;;13.03;;
14984;SDS011;7588;62.368;25.902;2023-05-15T00:33:52;14.67;;;11.87;;
14984;SDS011;7588;62.368;25.902;2023-05-15T00:36:18;17.37;;;12.97;;
14984;SDS011;7588;62.368;25.902;2023-05-15T00:38:45;15.37;;;12.17;;
14984;SDS011;7588;62.368;25.902;2023-05-15T00:41:11;15.73;;;13.30;;
14984;SDS011;7588;62.368;25.902;2023-05-15T00:43:38;14.33;;;12.03;;
14984;SDS011;7588;62.368;25.902;2023-05-15T00:46:05;15.40;;;12.37;;
14984;SDS011;7588;62.368;25.902;2023-05-15T00:48:31;15.40;;;12.63;;
14984;SDS011;7588;62.368;25.902;2023-05-15T00:50:58;15.80;;;12.00;;
14984;SDS011;7588;62.368;25.902;2023-05-15T00:53:25;14.77;;;12.20;;
14984;SDS011;7588;62.368;25.902;2023-05-15T00:55:56;15.47;;;12.33;;
14984;SDS011;7588;62.368;25.902;2023-05-15T00:58:23;14.97;;;12.23;;
14984;SDS011;7588;62.368;25.902;2023-05-15T01:00:51;16.83;;;13.20;;
14984;SDS011;7588;62.368;25.902;2023-05-15T01:03:17;16.07;;;12.73;;
14984;SDS011;7588;62.368;25.902;2023-05-15T01:05:43;13.87;;;12.33;;
14984;SDS011;7588;62.368;25.902;2023-05-15T01:10:57;17.10;;;13.53;;
14984;SDS011;7588;62.368;25.902;2023-05-15T01:13:23;15.43;;;13.33;;
14984;SDS011;7588;62.368;25.902;2023-05-15T01:15:49;21.47;;;13.43;;
14984;SDS011;7588;62.368;25.902;2023-05-15T01:18:15;18.23;;;14.20;;
14984;SDS011;7588;62.368;25.902;2023-05-15T01:20:50;17.10;;;13.07;;
14984;SDS011;7588;62.368;25.902;2023-05-15T01:23:22;17.90;;;13.10;;
14984;SDS011;7588;62.368;25.902;2023-05-15T01:26:17;18.00;;;14.13;;
14984;SDS011;7588;62.368;25.902;2023-05-15T01:29:11;16.70;;;13.57;;
14984;SDS011;7588;62.368;25.902;2023-05-15T01:31:43;25.87;;;14.03;;
14984;SDS011;7588;62.368;25.902;2023-05-15T01:34:14;15.17;;;12.83;;
14984;SDS011;7588;62.368;25.902;2023-05-15T01:36:52;15.07;;;12.23;;
14984;SDS011;7588;62.368;25.902;2023-05-15T01:39:21;15.23;;;12.77;;
14984;SDS011;7588;62.368;25.902;2023-05-15T01:42:09;15.93;;;13.13;;
14984;SDS011;7588;62.368;25.902;2023-05-15T01:44:40;16.80;;;13.07;;
14984;SDS011;7588;62.368;25.902;2023-05-15T01:47:15;17.00;;;13.27;;
14984;SDS011;7588;62.368;25.902;2023-05-15T01:49:45;18.90;;;13.63;;
14984;SDS011;7588;62.368;25.902;2023-05-15T01:52:15;15.63;;;13.33;;
14984;SDS011;7588;62.368;25.902;2023-05-15T01:54:44;18.40;;;14.07;;
14984;SDS011;7588;62.368;25.902;2023-05-15T01:57:11;17.57;;;13.40;;
14984;SDS011;7588;62.368;25.902;2023-05-15T01:59:39;18.80;;;14.40;;
14984;SDS011;7588;62.368;25.902;2023-05-15T02:02:06;18.13;;;14.13;;
14984;SDS011;7588;62.368;25.902;2023-05-15T02:04:34;16.80;;;14.10;;
14984;SDS011;7588;62.368;25.902;2023-05-15T02:07:02;18.77;;;14.33;;
14984;SDS011;7588;62.368;25.902;2023-05-15T02:09:29;20.83;;;15.27;;
14984;SDS011;7588;62.368;25.902;2023-05-15T02:11:57;17.87;;;13.87;;
14984;SDS011;7588;62.368;25.902;2023-05-15T02:14:25;20.27;;;14.27;;
14984;SDS011;7588;62.368;25.902;2023-05-15T02:16:53;20.53;;;14.07;;
14984;SDS011;7588;62.368;25.902;2023-05-15T02:19:19;21.67;;;14.50;;
14984;SDS011;7588;62.368;25.902;2023-05-15T02:21:44;20.50;;;15.20;;
14984;SDS011;7588;62.368;25.902;2023-05-15T02:24:10;21.40;;;14.90;;
14984;SDS011;7588;62.368;25.902;2023-05-15T02:29:36;17.30;;;14.40;;
14984;SDS011;7588;62.368;25.902;2023-05-15T02:32:13;22.07;;;14.47;;
14984;SDS011;7588;62.368;25.902;2023-05-15T02:37:30;18.97;;;14.43;;
14984;SDS011;7588;62.368;25.902;2023-05-15T02:39:58;21.03;;;15.57;;
14984;SDS011;7588;62.368;25.902;2023-05-15T02:42:26;24.23;;;16.37;;
14984;SDS011;7588;62.368;25.902;2023-05-15T02:44:54;23.33;;;15.70;;
14984;SDS011;7588;62.368;25.902;2023-05-15T02:47:21;23.80;;;15.43;;
14984;SDS011;7588;62.368;25.902;2023-05-15T02:49:49;21.33;;;15.50;;
14984;SDS011;7588;62.368;25.902;2023-05-15T02:52:15;19.97;;;15.37;;
14984;SDS011;7588;62.368;25.902;2023-05-15T02:54:41;21.73;;;16.87;;
14984;SDS011;7588;62.368;25.902;2023-05-15T02:57:07;23.47;;;16.23;;
14984;SDS011;7588;62.368;25.902;2023-05-15T02:59:33;20.53;;;16.57;;
14984;SDS011;7588;62.368;25.902;2023-05-15T03:01:59;22.27;;;16.30;;
14984;SDS011;7588;62.368;25.902;2023-05-15T03:04:27;23.50;;;17.70;;
14984;SDS011;7588;62.368;25.902;2023-05-15T03:06:53;21.27;;;16.90;;
14984;SDS011;7588;62.368;25.902;2023-05-15T03:09:18;23.13;;;17.07;;
14984;SDS011;7588;62.368;25.902;2023-05-15T03:11:45;23.23;;;17.20;;
14984;SDS011;7588;62.368;25.902;2023-05-15T03:14:10;22.73;;;17.50;;
14984;SDS011;7588;62.368;25.902;2023-05-15T03:16:36;24.30;;;18.20;;
14984;SDS011;7588;62.368;25.902;2023-05-15T03:19:03;22.70;;;18.30;;
14984;SDS011;7588;62.368;25.902;2023-05-15T03:21:29;19.10;;;17.07;;
14984;SDS011;7588;62.368;25.902;2023-05-15T03:23:54;23.87;;;18.43;;
14984;SDS011;7588;62.368;25.902;2023-05-15T03:26:20;21.87;;;18.57;;
14984;SDS011;7588;62.368;25.902;2023-05-15T03:28:46;24.17;;;19.73;;
14984;SDS011;7588;62.368;25.902;2023-05-15T03:31:11;24.33;;;18.30;;
14984;SDS011;7588;62.368;25.902;2023-05-15T03:33:38;25.73;;;19.37;;
14984;SDS011;7588;62.368;25.902;2023-05-15T03:36:05;28.23;;;19.13;;
14984;SDS011;7588;62.368;25.902;2023-05-15T03:38:31;28.77;;;20.27;;
14984;SDS011;7588;62.368;25.902;2023-05-15T03:40:57;25.00;;;19.40;;
14984;SDS011;7588;62.368;25.902;2023-05-15T03:43:22;22.37;;;19.00;;
14984;SDS011;7588;62.368;25.902;2023-05-15T03:45:48;22.13;;;19.03;;
14984;SDS011;7588;62.368;25.902;2023-05-15T03:48:14;20.23;;;17.93;;
14984;SDS011;7588;62.368;25.902;2023-05-15T03:50:40;23.47;;;16.87;;
14984;SDS011;7588;62.368;25.902;2023-05-15T03:53:06;15.47;;;13.93;;
14984;SDS011;7588;62.368;25.902;2023-05-15T03:55:31;12.80;;;11.60;;
14984;SDS011;7588;62.368;25.902;2023-05-15T03:57:57;11.33;;;10.43;;
14984;SDS011;7588;62.368;25.902;2023-05-15T04:00:23;10.10;;;9.10;;
14984;SDS011;7588;62.368;25.902;2023-05-15T04:02:49;8.90;;;8.10;;
14984;SDS011;7588;62.368;25.902;2023-05-15T04:05:15;7.40;;;6.70;;
14984;SDS011;7588;62.368;25.902;2023-05-15T04:07:43;8.00;;;7.20;;
14984;SDS011;7588;62.368;25.902;2023-05-15T04:10:09;7.67;;;7.07;;
14984;SDS011;7588;62.368;25.902;2023-05-15T04:12:35;7.10;;;6.60;;
14984;SDS011;7588;62.368;25.902;2023-05-15T04:15:34;7.13;;;6.50;;
14984;SDS011;7588;62.368;25.902;2023-05-15T04:17:53;6.73;;;5.37;;
14984;SDS011;7588;62.368;25.902;2023-05-15T04:20:20;6.03;;;5.63;;
14984;SDS011;7588;62.368;25.902;2023-05-15T04:22:47;6.20;;;5.70;;
14984;SDS011;7588;62.368;25.902;2023-05-15T04:25:13;6.77;;;5.57;;
14984;SDS011;7588;62.368;25.902;2023-05-15T04:27:40;5.27;;;4.87;;
14984;SDS011;7588;62.368;25.902;2023-05-15T04:30:07;6.63;;;5.40;;
14984;SDS011;7588;62.368;25.902;2023-05-15T04:32:33;5.68;;;5.18;;
14984;SDS011;7588;62.368;25.902;2023-05-15T04:35:00;4.68;;;4.30;;
14984;SDS011;7588;62.368;25.902;2023-05-15T04:37:26;6.32;;;4.35;;
14984;SDS011;7588;62.368;25.902;2023-05-15T04:39:53;4.78;;;4.38;;
14984;SDS011;7588;62.368;25.902;2023-05-15T04:42:19;5.32;;;4.75;;
14984;SDS011;7588;62.368;25.902;2023-05-15T04:44:44;4.72;;;3.92;;
14984;SDS011;7588;62.368;25.902;2023-05-15T04:47:10;4.57;;;4.25;;
14984;SDS011;7588;62.368;25.902;2023-05-15T04:49:36;5.85;;;4.25;;
14984;SDS011;7588;62.368;25.902;2023-05-15T04:52:03;3.92;;;3.55;;
14984;SDS011;7588;62.368;25.902;2023-05-15T04:54:28;3.70;;;3.40;;
14984;SDS011;7588;62.368;25.902;2023-05-15T04:56:54;4.30;;;3.83;;
14984;SDS011;7588;62.368;25.902;2023-05-15T04:59:20;3.63;;;3.33;;
14984;SDS011;7588;62.368;25.902;2023-05-15T05:01:45;5.53;;;3.53;;
14984;SDS011;7588;62.368;25.902;2023-05-15T05:04:11;4.70;;;4.20;;
14984;SDS011;7588;62.368;25.902;2023-05-15T05:06:37;7.13;;;3.70;;
14984;SDS011;7588;62.368;25.902;2023-05-15T05:09:02;4.03;;;3.72;;
14984;SDS011;7588;62.368;25.902;2023-05-15T05:11:28;4.13;;;3.60;;
14984;SDS011;7588;62.368;25.902;2023-05-15T05:13:54;3.88;;;3.45;;
14984;SDS011;7588;62.368;25.902;2023-05-15T05:16:20;5.18;;;3.72;;
14984;SDS011;7588;62.368;25.902;2023-05-15T05:18:45;4.15;;;3.85;;
14984;SDS011;7588;62.368;25.902;2023-05-15T05:21:11;3.72;;;3.20;;
14984;SDS011;7588;62.368;25.902;2023-05-15T05:23:36;4.05;;;3.50;;
14984;SDS011;7588;62.368;25.902;2023-05-15T05:26:02;3.88;;;3.47;;
14984;SDS011;7588;62.368;25.902;2023-05-15T05:28:28;4.57;;;3.42;;
14984;SDS011;7588;62.368;25.902;2023-05-15T05:30:53;3.63;;;3.33;;
14984;SDS011;7588;62.368;25.902;2023-05-15T05:33:19;3.58;;;3.25;;
14984;SDS011;7588;62.368;25.902;2023-05-15T05:35:45;4.65;;;3.78;;
14984;SDS011;7588;62.368;25.902;2023-05-15T05:38:11;4.53;;;3.28;;
14984;SDS011;7588;62.368;25.902;2023-05-15T05:40:36;4.70;;;3.60;;
14984;SDS011;7588;62.368;25.902;2023-05-15T05:43:02;3.80;;;3.42;;
14984;SDS011;7588;62.368;25.902;2023-05-15T05:45:28;3.58;;;3.28;;
14984;SDS011;7588;62.368;25.902;2023-05-15T05:47:54;4.05;;;3.75;;
14984;SDS011;7588;62.368;25.902;2023-05-15T05:50:20;3.78;;;3.33;;
14984;SDS011;7588;62.368;25.902;2023-05-15T05:52:47;3.42;;;3.13;;
14984;SDS011;7588;62.368;25.902;2023-05-15T05:55:13;5.05;;;3.40;;
14984;SDS011;7588;62.368;25.902;2023-05-15T05:57:39;4.63;;;3.42;;
14984;SDS011;7588;62.368;25.902;2023-05-15T06:00:04;4.10;;;3.63;;
14984;SDS011;7588;62.368;25.902;2023-05-15T06:02:38;3.20;;;2.90;;
14984;SDS011;7588;62.368;25.902;2023-05-15T06:05:04;4.97;;;3.55;;
14984;SDS011;7588;62.368;25.902;2023-05-15T06:07:31;3.70;;;3.40;;
14984;SDS011;7588;62.368;25.902;2023-05-15T06:09:57;3.75;;;3.10;;
14984;SDS011;7588;62.368;25.902;2023-05-15T06:12:23;3.97;;;3.58;;
14984;SDS011;7588;62.368;25.902;2023-05-15T06:14:49;4.50;;;3.45;;
14984;SDS011;7588;62.368;25.902;2023-05-15T06:17:15;4.32;;;3.10;;
14984;SDS011;7588;62.368;25.902;2023-05-15T06:19:40;3.50;;;3.10;;
14984;SDS011;7588;62.368;25.902;2023-05-15T06:22:06;3.80;;;3.40;;
14984;SDS011;7588;62.368;25.902;2023-05-15T06:24:31;5.32;;;3.78;;
14984;SDS011;7588;62.368;25.902;2023-05-15T06:26:58;5.20;;;3.20;;
14984;SDS011;7588;62.368;25.902;2023-05-15T06:29:24;3.88;;;3.50;;
14984;SDS011;7588;62.368;25.902;2023-05-15T06:31:50;3.47;;;3.15;;
14984;SDS011;7588;62.368;25.902;2023-05-15T06:34:16;4.18;;;3.40;;
14984;SDS011;7588;62.368;25.902;2023-05-15T06:36:42;3.75;;;3.45;;
14984;SDS011;7588;62.368;25.902;2023-05-15T06:39:07;3.80;;;3.50;;
14984;SDS011;7588;62.368;25.902;2023-05-15T06:41:34;3.40;;;3.10;;
14984;SDS011;7588;62.368;25.902;2023-05-15T06:44:01;3.95;;;3.20;;
14984;SDS011;7588;62.368;25.902;2023-05-15T06:46:27;5.38;;;3.33;;
14984;SDS011;7588;62.368;25.902;2023-05-15T06:48:53;4.78;;;2.83;;
14984;SDS011;7588;62.368;25.902;2023-05-15T06:51:18;5.45;;;3.03;;
14984;SDS011;7588;62.368;25.902;2023-05-15T06:53:44;4.47;;;3.03;;
14984;SDS011;7588;62.368;25.902;2023-05-15T06:56:10;3.75;;;3.22;;
14984;SDS011;7588;62.368;25.902;2023-05-15T06:58:35;5.55;;;2.80;;
14984;SDS011;7588;62.368;25.902;2023-05-15T07:01:01;4.68;;;3.15;;
14984;SDS011;7588;62.368;25.902;2023-05-15T07:03:28;5.32;;;3.22;;
14984;SDS011;7588;62.368;25.902;2023-05-15T07:05:54;3.28;;;2.70;;
14984;SDS011;7588;62.368;25.902;2023-05-15T07:08:23;3.20;;;2.90;;
14984;SDS011;7588;62.368;25.902;2023-05-15T07:10:49;4.93;;;3.08;;
14984;SDS011;7588;62.368;25.902;2023-05-15T07:13:15;3.05;;;2.85;;
14984;SDS011;7588;62.368;25.902;2023-05-15T07:15:42;3.88;;;2.85;;
14984;SDS011;7588;62.368;25.902;2023-05-15T07:18:08;4.25;;;2.78;;
14984;SDS011;7588;62.368;25.902;2023-05-15T07:20:33;3.80;;;2.70;;
14984;SDS011;7588;62.368;25.902;2023-05-15T07:22:59;3.15;;;2.88;;
14984;SDS011;7588;62.368;25.902;2023-05-15T07:25:25;3.17;;;2.92;;
14984;SDS011;7588;62.368;25.902;2023-05-15T07:27:51;3.40;;;3.10;;
14984;SDS011;7588;62.368;25.902;2023-05-15T07:30:17;3.42;;;3.13;;
14984;SDS011;7588;62.368;25.902;2023-05-15T07:32:43;3.63;;;3.33;;
14984;SDS011;7588;62.368;25.902;2023-05-15T07:35:08;5.57;;;3.42;;
14984;SDS011;7588;62.368;25.902;2023-05-15T07:37:35;3.25;;;2.95;;
14984;SDS011;7588;62.368;25.902;2023-05-15T07:40:01;3.53;;;2.67;;
14984;SDS011;7588;62.368;25.902;2023-05-15T07:42:28;4.60;;;2.80;;
14984;SDS011;7588;62.368;25.902;2023-05-15T07:44:54;3.40;;;3.10;;
14984;SDS011;7588;62.368;25.902;2023-05-15T07:47:19;4.55;;;2.75;;
14984;SDS011;7588;62.368;25.902;2023-05-15T07:49:45;3.35;;;2.80;;
14984;SDS011;7588;62.368;25.902;2023-05-15T07:52:11;4.43;;;3.13;;
14984;SDS011;7588;62.368;25.902;2023-05-15T07:54:37;3.30;;;3.00;;
14984;SDS011;7588;62.368;25.902;2023-05-15T07:57:05;6.05;;;3.10;;
14984;SDS011;7588;62.368;25.902;2023-05-15T07:59:31;4.32;;;3.30;;
14984;SDS011;7588;62.368;25.902;2023-05-15T08:01:57;4.47;;;2.85;;
14984;SDS011;7588;62.368;25.902;2023-05-15T08:04:22;3.58;;;2.67;;
14984;SDS011;7588;62.368;25.902;2023-05-15T08:06:48;6.10;;;2.75;;
14984;SDS011;7588;62.368;25.902;2023-05-15T08:09:14;5.07;;;2.90;;
14984;SDS011;7588;62.368;25.902;2023-05-15T08:11:39;3.20;;;2.90;;
14984;SDS011;7588;62.368;25.902;2023-05-15T08:14:05;4.60;;;3.05;;
14984;SDS011;7588;62.368;25.902;2023-05-15T08:16:31;7.72;;;2.65;;
14984;SDS011;7588;62.368;25.902;2023-05-15T08:18:56;3.70;;;2.90;;
14984;SDS011;7588;62.368;25.902;2023-05-15T08:21:26;3.33;;;2.85;;
14984;SDS011;7588;62.368;25.902;2023-05-15T08:23:51;3.75;;;2.63;;
14984;SDS011;7588;62.368;25.902;2023-05-15T08:26:17;4.82;;;2.85;;
14984;SDS011;7588;62.368;25.902;2023-05-15T08:28:43;3.63;;;2.40;;
14984;SDS011;7588;62.368;25.902;2023-05-15T08:31:08;4.88;;;2.67;;
14984;SDS011;7588;62.368;25.902;2023-05-15T08:33:34;8.80;;;2.70;;
14984;SDS011;7588;62.368;25.902;2023-05-15T08:36:00;4.18;;;2.90;;
14984;SDS011;7588;62.368;25.902;2023-05-15T08:38:26;4.40;;;2.90;;
14984;SDS011;7588;62.368;25.902;2023-05-15T08:40:51;3.45;;;2.47;;
14984;SDS011;7588;62.368;25.902;2023-05-15T08:43:21;5.13;;;2.90;;
14984;SDS011;7588;62.368;25.902;2023-05-15T08:45:50;3.97;;;2.80;;
14984;SDS011;7588;62.368;25.902;2023-05-15T08:48:18;6.43;;;3.00;;
14984;SDS011;7588;62.368;25.902;2023-05-15T08:50:49;7.95;;;2.60;;
14984;SDS011;7588;62.368;25.902;2023-05-15T08:53:15;7.18;;;2.60;;
14984;SDS011;7588;62.368;25.902;2023-05-15T08:55:41;2.67;;;2.47;;
14984;SDS011;7588;62.368;25.902;2023-05-15T08:58:07;2.65;;;2.35;;
14984;SDS011;7588;62.368;25.902;2023-05-15T09:00:34;3.13;;;2.45;;
14984;SDS011;7588;62.368;25.902;2023-05-15T09:03:00;5.60;;;2.60;;
14984;SDS011;7588;62.368;25.902;2023-05-15T09:05:26;2.78;;;2.55;;
14984;SDS011;7588;62.368;25.902;2023-05-15T09:07:56;2.95;;;2.30;;
14984;SDS011;7588;62.368;25.902;2023-05-15T09:10:27;3.83;;;2.75;;
14984;SDS011;7588;62.368;25.902;2023-05-15T09:12:53;2.58;;;2.30;;
14984;SDS011;7588;62.368;25.902;2023-05-15T09:15:20;8.35;;;2.83;;
14984;SDS011;7588;62.368;25.902;2023-05-15T09:17:48;3.42;;;2.63;;
14984;SDS011;7588;62.368;25.902;2023-05-15T09:20:36;4.55;;;2.10;;
14984;SDS011;7588;62.368;25.902;2023-05-15T09:23:03;5.68;;;2.60;;
14984;SDS011;7588;62.368;25.902;2023-05-15T09:25:42;6.25;;;3.35;;
14984;SDS011;7588;62.368;25.902;2023-05-15T09:28:09;2.53;;;2.08;;
14984;SDS011;7588;62.368;25.902;2023-05-15T09:30:48;3.17;;;2.50;;
14984;SDS011;7588;62.368;25.902;2023-05-15T09:33:15;3.80;;;2.42;;
14984;SDS011;7588;62.368;25.902;2023-05-15T09:35:41;3.25;;;2.83;;
14984;SDS011;7588;62.368;25.902;2023-05-15T09:38:10;4.78;;;2.22;;
14984;SDS011;7588;62.368;25.902;2023-05-15T09:40:37;3.03;;;2.50;;
14984;SDS011;7588;62.368;25.902;2023-05-15T09:43:04;3.58;;;2.30;;
14984;SDS011;7588;62.368;25.902;2023-05-15T09:45:30;4.03;;;2.40;;
14984;SDS011;7588;62.368;25.902;2023-05-15T09:47:58;3.83;;;2.30;;
14984;SDS011;7588;62.368;25.902;2023-05-15T09:50:33;4.65;;;2.25;;
14984;SDS011;7588;62.368;25.902;2023-05-15T09:53:00;2.53;;;1.75;;
14984;SDS011;7588;62.368;25.902;2023-05-15T09:55:26;2.60;;;2.13;;
14984;SDS011;7588;62.368;25.902;2023-05-15T09:58:11;4.72;;;2.25;;
14984;SDS011;7588;62.368;25.902;2023-05-15T10:00:38;4.22;;;2.75;;
14984;SDS011;7588;62.368;25.902;2023-05-15T10:03:05;5.30;;;2.50;;
14984;SDS011;7588;62.368;25.902;2023-05-15T10:05:33;2.58;;;2.33;;
14984;SDS011;7588;62.368;25.902;2023-05-15T10:07:59;3.55;;;2.30;;
14984;SDS011;7588;62.368;25.902;2023-05-15T10:10:26;3.92;;;2.10;;
14984;SDS011;7588;62.368;25.902;2023-05-15T10:12:53;3.67;;;2.30;;
14984;SDS011;7588;62.368;25.902;2023-05-15T10:15:20;5.63;;;2.40;;
14984;SDS011;7588;62.368;25.902;2023-05-15T10:17:47;4.43;;;1.98;;
14984;SDS011;7588;62.368;25.902;2023-05-15T10:20:17;6.90;;;2.00;;
14984;SDS011;7588;62.368;25.902;2023-05-15T10:22:45;4.68;;;2.42;;
14984;SDS011;7588;62.368;25.902;2023-05-15T10:25:37;3.28;;;2.05;;
14984;SDS011;7588;62.368;25.902;2023-05-15T10:28:07;2.17;;;1.98;;
14984;SDS011;7588;62.368;25.902;2023-05-15T10:30:34;3.38;;;2.30;;
14984;SDS011;7588;62.368;25.902;2023-05-15T10:33:00;2.72;;;2.22;;
14984;SDS011;7588;62.368;25.902;2023-05-15T10:35:28;2.50;;;2.30;;
14984;SDS011;7588;62.368;25.902;2023-05-15T10:37:54;2.75;;;2.33;;
14984;SDS011;7588;62.368;25.902;2023-05-15T10:40:21;5.40;;;2.40;;
14984;SDS011;7588;62.368;25.902;2023-05-15T10:42:48;5.75;;;2.70;;
14984;SDS011;7588;62.368;25.902;2023-05-15T10:45:14;3.00;;;2.10;;
14984;SDS011;7588;62.368;25.902;2023-05-15T10:47:40;3.63;;;2.45;;
14984;SDS011;7588;62.368;25.902;2023-05-15T10:50:07;4.57;;;2.10;;
14984;SDS011;7588;62.368;25.902;2023-05-15T10:52:35;5.53;;;2.20;;
14984;SDS011;7588;62.368;25.902;2023-05-15T10:55:04;3.50;;;2.28;;
14984;SDS011;7588;62.368;25.902;2023-05-15T10:57:31;1.98;;;1.88;;
14984;SDS011;7588;62.368;25.902;2023-05-15T10:59:57;4.55;;;2.42;;
14984;SDS011;7588;62.368;25.902;2023-05-15T11:02:24;4.60;;;1.85;;
14984;SDS011;7588;62.368;25.902;2023-05-15T11:05:01;5.90;;;2.35;;
14984;SDS011;7588;62.368;25.902;2023-05-15T11:07:27;2.67;;;2.17;;
14984;SDS011;7588;62.368;25.902;2023-05-15T11:09:56;3.83;;;2.22;;
14984;SDS011;7588;62.368;25.902;2023-05-15T11:12:22;2.65;;;2.35;;
14984;SDS011;7588;62.368;25.902;2023-05-15T11:17:23;3.22;;;2.25;;
14984;SDS011;7588;62.368;25.902;2023-05-15T11:22:15;3.35;;;2.22;;
14984;SDS011;7588;62.368;25.902;2023-05-15T11:27:25;4.63;;;2.50;;
14984;SDS011;7588;62.368;25.902;2023-05-15T11:35:29;4.53;;;2.90;;
14984;SDS011;7588;62.368;25.902;2023-05-15T11:40:26;4.55;;;2.53;;
14984;SDS011;7588;62.368;25.902;2023-05-15T11:43:04;6.60;;;2.40;;
14984;SDS011;7588;62.368;25.902;2023-05-15T11:45:32;3.28;;;2.30;;
14984;SDS011;7588;62.368;25.902;2023-05-15T11:48:00;5.32;;;2.33;;
14984;SDS011;7588;62.368;25.902;2023-05-15T11:50:27;3.28;;;2.25;;
14984;SDS011;7588;62.368;25.902;2023-05-15T11:52:56;2.60;;;2.10;;
14984;SDS011;7588;62.368;25.902;2023-05-15T11:55:22;3.85;;;2.20;;
14984;SDS011;7588;62.368;25.902;2023-05-15T11:57:49;5.35;;;2.03;;
14984;SDS011;7588;62.368;25.902;2023-05-15T12:00:15;3.35;;;1.95;;
14984;SDS011;7588;62.368;25.902;2023-05-15T12:02:41;4.20;;;2.40;;
14984;SDS011;7588;62.368;25.902;2023-05-15T12:05:07;2.05;;;1.90;;
14984;SDS011;7588;62.368;25.902;2023-05-15T12:07:36;4.38;;;2.20;;
14984;SDS011;7588;62.368;25.902;2023-05-15T12:10:05;3.72;;;2.38;;
14984;SDS011;7588;62.368;25.902;2023-05-15T12:12:34;2.60;;;2.28;;
14984;SDS011;7588;62.368;25.902;2023-05-15T12:15:00;2.47;;;1.90;;
14984;SDS011;7588;62.368;25.902;2023-05-15T12:17:26;2.38;;;2.17;;
14984;SDS011;7588;62.368;25.902;2023-05-15T12:19:52;2.40;;;2.20;;
14984;SDS011;7588;62.368;25.902;2023-05-15T12:22:19;4.82;;;2.08;;
14984;SDS011;7588;62.368;25.902;2023-05-15T12:24:46;4.47;;;2.30;;
14984;SDS011;7588;62.368;25.902;2023-05-15T12:27:11;2.00;;;1.83;;
14984;SDS011;7588;62.368;25.902;2023-05-15T12:29:38;4.07;;;2.30;;
14984;SDS011;7588;62.368;25.902;2023-05-15T12:32:05;3.20;;;2.08;;
14984;SDS011;7588;62.368;25.902;2023-05-15T12:34:31;3.47;;;2.15;;
14984;SDS011;7588;62.368;25.902;2023-05-15T12:36:57;2.92;;;2.13;;
14984;SDS011;7588;62.368;25.902;2023-05-15T12:39:24;2.83;;;2.30;;
14984;SDS011;7588;62.368;25.902;2023-05-15T12:41:51;3.58;;;2.45;;
14984;SDS011;7588;62.368;25.902;2023-05-15T12:44:19;3.25;;;2.20;;
14984;SDS011;7588;62.368;25.902;2023-05-15T12:46:45;6.50;;;2.60;;
14984;SDS011;7588;62.368;25.902;2023-05-15T12:49:11;2.60;;;2.38;;
14984;SDS011;7588;62.368;25.902;2023-05-15T12:51:43;7.55;;;2.38;;
14984;SDS011;7588;62.368;25.902;2023-05-15T12:54:16;4.50;;;2.50;;
14984;SDS011;7588;62.368;25.902;2023-05-15T12:56:46;2.47;;;2.28;;
14984;SDS011;7588;62.368;25.902;2023-05-15T12:59:12;3.60;;;2.75;;
14984;SDS011;7588;62.368;25.902;2023-05-15T13:01:39;3.42;;;2.00;;
14984;SDS011;7588;62.368;25.902;2023-05-15T13:04:06;4.63;;;2.15;;
14984;SDS011;7588;62.368;25.902;2023-05-15T13:06:33;3.30;;;2.50;;
14984;SDS011;7588;62.368;25.902;2023-05-15T13:08:59;3.28;;;2.22;;
14984;SDS011;7588;62.368;25.902;2023-05-15T13:11:28;2.38;;;2.00;;
14984;SDS011;7588;62.368;25.902;2023-05-15T13:13:55;3.08;;;2.03;;
14984;SDS011;7588;62.368;25.902;2023-05-15T13:16:24;3.10;;;1.90;;
14984;SDS011;7588;62.368;25.902;2023-05-15T13:18:53;3.45;;;2.00;;
14984;SDS011;7588;62.368;25.902;2023-05-15T13:21:21;3.50;;;2.03;;
14984;SDS011;7588;62.368;25.902;2023-05-15T13:23:47;3.38;;;1.70;;
14984;SDS011;7588;62.368;25.902;2023-05-15T13:26:12;1.63;;;1.52;;
14984;SDS011;7588;62.368;25.902;2023-05-15T13:28:38;1.77;;;1.60;;
14984;SDS011;7588;62.368;25.902;2023-05-15T13:31:04;3.00;;;2.00;;
14984;SDS011;7588;62.368;25.902;2023-05-15T13:33:30;3.17;;;2.10;;
14984;SDS011;7588;62.368;25.902;2023-05-15T13:35:56;2.55;;;1.85;;
14984;SDS011;7588;62.368;25.902;2023-05-15T13:38:21;4.97;;;1.98;;
14984;SDS011;7588;62.368;25.902;2023-05-15T13:40:47;2.50;;;1.83;;
14984;SDS011;7588;62.368;25.902;2023-05-15T13:43:13;7.82;;;2.67;;
14984;SDS011;7588;62.368;25.902;2023-05-15T13:45:41;3.35;;;2.20;;
14984;SDS011;7588;62.368;25.902;2023-05-15T13:48:07;2.65;;;1.98;;
14984;SDS011;7588;62.368;25.902;2023-05-15T13:50:33;5.15;;;2.15;;
14984;SDS011;7588;62.368;25.902;2023-05-15T13:52:58;4.50;;;2.30;;
14984;SDS011;7588;62.368;25.902;2023-05-15T13:55:24;3.03;;;2.08;;
14984;SDS011;7588;62.368;25.902;2023-05-15T13:57:50;2.17;;;1.77;;
14984;SDS011;7588;62.368;25.902;2023-05-15T14:00:17;3.08;;;1.80;;
14984;SDS011;7588;62.368;25.902;2023-05-15T14:02:43;8.30;;;1.80;;
14984;SDS011;7588;62.368;25.902;2023-05-15T14:05:10;2.13;;;1.60;;
14984;SDS011;7588;62.368;25.902;2023-05-15T14:07:37;1.85;;;1.75;;
14984;SDS011;7588;62.368;25.902;2023-05-15T14:10:03;3.28;;;1.85;;
14984;SDS011;7588;62.368;25.902;2023-05-15T14:12:29;5.32;;;1.75;;
14984;SDS011;7588;62.368;25.902;2023-05-15T14:14:56;2.65;;;1.73;;
14984;SDS011;7588;62.368;25.902;2023-05-15T14:17:22;2.72;;;1.90;;
14984;SDS011;7588;62.368;25.902;2023-05-15T14:19:48;2.05;;;1.60;;
14984;SDS011;7588;62.368;25.902;2023-05-15T14:22:14;3.15;;;1.65;;
14984;SDS011;7588;62.368;25.902;2023-05-15T14:24:40;3.47;;;1.50;;
14984;SDS011;7588;62.368;25.902;2023-05-15T14:27:06;4.82;;;1.95;;
14984;SDS011;7588;62.368;25.902;2023-05-15T14:29:32;3.40;;;1.60;;
14984;SDS011;7588;62.368;25.902;2023-05-15T14:31:58;2.13;;;1.35;;
14984;SDS011;7588;62.368;25.902;2023-05-15T14:34:24;2.78;;;1.88;;
14984;SDS011;7588;62.368;25.902;2023-05-15T14:36:49;2.35;;;1.50;;
14984;SDS011;7588;62.368;25.902;2023-05-15T14:39:15;1.98;;;1.50;;
14984;SDS011;7588;62.368;25.902;2023-05-15T14:41:42;5.00;;;1.60;;
14984;SDS011;7588;62.368;25.902;2023-05-15T14:44:08;2.10;;;1.48;;
14984;SDS011;7588;62.368;25.902;2023-05-15T14:46:34;2.72;;;1.80;;
14984;SDS011;7588;62.368;25.902;2023-05-15T14:49:01;1.75;;;1.63;;
14984;SDS011;7588;62.368;25.902;2023-05-15T14:51:30;1.80;;;1.48;;
14984;SDS011;7588;62.368;25.902;2023-05-15T14:53:56;2.40;;;1.75;;
14984;SDS011;7588;62.368;25.902;2023-05-15T14:56:22;3.63;;;1.73;;
14984;SDS011;7588;62.368;25.902;2023-05-15T14:58:48;2.65;;;1.70;;
14984;SDS011;7588;62.368;25.902;2023-05-15T15:01:15;2.10;;;1.90;;
14984;SDS011;7588;62.368;25.902;2023-05-15T15:03:40;3.53;;;1.45;;
14984;SDS011;7588;62.368;25.902;2023-05-15T15:06:09;2.45;;;1.60;;